createdAt,value
2023-05-20T00:02:10.967Z,1.40
2023-05-20T00:04:37.853Z,2.22
2023-05-20T00:07:05.294Z,1.50
2023-05-20T00:09:34.625Z,1.60
2023-05-20T00:12:01.450Z,1.75
2023-05-20T00:14:28.250Z,1.73
2023-05-20T00:16:55.056Z,1.55
2023-05-20T00:19:22.140Z,1.85
2023-05-20T00:21:49.019Z,1.60
2023-05-20T00:24:15.932Z,1.95
2023-05-20T00:26:42.742Z,1.73
2023-05-20T00:29:09.492Z,1.55
2023-05-20T00:31:36.847Z,1.50
2023-05-20T00:34:04.044Z,1.60
2023-05-20T00:36:31.410Z,1.63
2023-05-20T00:38:58.611Z,1.70
2023-05-20T00:41:26.156Z,1.83
2023-05-20T00:43:56.705Z,2.00
2023-05-20T00:46:24.536Z,1.70
2023-05-20T00:48:51.951Z,2.30
2023-05-20T00:51:19.631Z,1.90
2023-05-20T00:53:46.966Z,2.00
2023-05-20T00:56:14.169Z,1.63
2023-05-20T00:58:41.423Z,2.13
2023-05-20T01:01:08.686Z,1.58
2023-05-20T01:03:36.034Z,1.80
2023-05-20T01:06:03.659Z,1.90
2023-05-20T01:08:34.228Z,1.70
2023-05-20T01:11:07.345Z,1.95
2023-05-20T01:13:38.455Z,1.60
2023-05-20T01:16:06.256Z,1.98
2023-05-20T01:18:34.785Z,2.05
2023-05-20T01:21:04.405Z,1.85
2023-05-20T01:23:41.643Z,1.60
2023-05-20T01:26:09.060Z,1.90
2023-05-20T01:28:38.709Z,1.73
2023-05-20T01:31:12.050Z,2.28
2023-05-20T01:33:40.093Z,2.13
2023-05-20T01:36:07.632Z,2.00
2023-05-20T01:38:36.060Z,1.83
2023-05-20T01:41:05.729Z,1.77
2023-05-20T01:43:32.817Z,1.85
2023-05-20T01:46:02.993Z,2.00
2023-05-20T01:48:30.191Z,2.28
2023-05-20T01:50:57.490Z,2.17
2023-05-20T01:53:24.616Z,2.17
2023-05-20T01:55:51.802Z,2.00
2023-05-20T01:58:18.944Z,1.83
2023-05-20T02:00:46.156Z,2.13
2023-05-20T02:03:15.633Z,1.83
2023-05-20T02:05:42.886Z,1.83
2023-05-20T02:08:12.355Z,1.83
2023-05-20T02:10:39.538Z,1.75
2023-05-20T02:13:06.763Z,2.00
2023-05-20T02:15:34.082Z,2.40
2023-05-20T02:18:05.721Z,2.10
2023-05-20T02:20:36.138Z,1.70
2023-05-20T02:23:05.863Z,1.92
2023-05-20T02:25:33.586Z,1.85
2023-05-20T02:28:00.958Z,2.13
2023-05-20T02:30:28.176Z,2.33
2023-05-20T02:32:55.640Z,1.80
2023-05-20T02:35:22.811Z,2.50
2023-05-20T02:37:52.414Z,2.20
2023-05-20T02:40:19.625Z,2.00
2023-05-20T02:42:46.964Z,2.10
2023-05-20T02:45:14.104Z,2.20
2023-05-20T02:47:43.600Z,2.03
2023-05-20T02:50:10.913Z,2.88
2023-05-20T02:52:39.909Z,2.22
2023-05-20T02:55:07.713Z,2.28
2023-05-20T02:57:38.127Z,2.25
2023-05-20T03:00:07.173Z,2.22
2023-05-20T03:02:36.622Z,2.40
2023-05-20T03:05:05.197Z,2.20
2023-05-20T03:07:34.461Z,2.00
2023-05-20T03:10:04.921Z,2.80
2023-05-20T03:12:34.117Z,2.53
2023-05-20T03:15:04.487Z,2.58
2023-05-20T03:17:31.668Z,2.42
2023-05-20T03:19:58.834Z,2.42
2023-05-20T03:22:26.085Z,2.60
2023-05-20T03:24:53.216Z,2.45
2023-05-20T03:27:21.437Z,2.60
2023-05-20T03:29:48.835Z,2.72
2023-05-20T03:32:18.316Z,2.05
2023-05-20T03:34:45.591Z,2.20
2023-05-20T03:37:12.801Z,2.17
2023-05-20T03:39:39.986Z,2.45
2023-05-20T03:42:07.781Z,2.35
2023-05-20T03:44:34.958Z,2.60
2023-05-20T03:47:02.141Z,1.88
2023-05-20T03:49:31.605Z,2.28
2023-05-20T03:51:58.456Z,2.20
2023-05-20T03:54:25.186Z,2.22
2023-05-20T03:56:52.065Z,2.40
2023-05-20T03:59:19.557Z,2.47
2023-05-20T04:01:46.398Z,2.22
2023-05-20T04:04:13.237Z,1.90
2023-05-20T04:06:40.510Z,2.20
2023-05-20T04:09:07.309Z,2.47
2023-05-20T04:11:34.122Z,2.10
2023-05-20T04:14:00.970Z,2.33
2023-05-20T04:16:29.509Z,2.65
2023-05-20T04:18:59.111Z,2.22
2023-05-20T04:21:28.271Z,2.00
2023-05-20T04:23:55.590Z,2.07
2023-05-20T04:26:24.546Z,2.67
2023-05-20T04:28:51.293Z,2.20
2023-05-20T04:31:18.724Z,2.20
2023-05-20T04:33:46.667Z,2.10
2023-05-20T04:36:16.253Z,2.35
2023-05-20T04:38:44.577Z,2.20
2023-05-20T04:41:11.441Z,2.33
2023-05-20T04:43:40.111Z,2.33
2023-05-20T04:46:07.355Z,2.50
2023-05-20T04:48:34.625Z,2.47
2023-05-20T04:51:01.379Z,2.47
2023-05-20T04:53:30.510Z,2.50
2023-05-20T04:55:57.341Z,2.85
2023-05-20T04:58:25.009Z,2.47
2023-05-20T05:00:52.660Z,2.25
2023-05-20T05:03:22.615Z,2.33
2023-05-20T05:08:18.336Z,2.58
2023-05-20T05:10:46.469Z,2.50
2023-05-20T05:13:13.338Z,1.90
2023-05-20T05:15:42.594Z,2.33
2023-05-20T05:18:09.628Z,2.30
2023-05-20T05:20:36.510Z,2.30
2023-05-20T05:23:06.068Z,2.38
2023-05-20T05:25:33.352Z,2.30
2023-05-20T05:28:00.751Z,2.45
2023-05-20T05:30:29.728Z,2.20
2023-05-20T05:32:56.668Z,2.53
2023-05-20T05:35:23.458Z,2.35
2023-05-20T05:37:50.663Z,2.40
2023-05-20T05:40:18.905Z,2.28
2023-05-20T05:42:46.966Z,2.30
2023-05-20T05:45:14.876Z,2.85
2023-05-20T05:47:44.124Z,2.30
2023-05-20T05:50:12.012Z,1.90
2023-05-20T05:52:40.046Z,2.42
2023-05-20T05:55:08.475Z,2.30
2023-05-20T05:57:39.072Z,2.33
2023-05-20T06:00:10.646Z,2.00
2023-05-20T06:02:45.171Z,2.40
2023-05-20T06:05:15.781Z,2.78
2023-05-20T06:07:46.063Z,2.60
2023-05-20T06:10:16.288Z,2.30
2023-05-20T06:12:46.408Z,2.38
2023-05-20T06:15:16.762Z,2.00
2023-05-20T06:17:47.011Z,2.15
2023-05-20T06:20:16.292Z,2.08
2023-05-20T06:22:43.434Z,2.15
2023-05-20T06:25:16.431Z,1.90
2023-05-20T06:27:46.343Z,2.50
2023-05-20T06:30:18.944Z,2.42
2023-05-20T06:32:51.594Z,1.98
2023-05-20T06:35:20.327Z,1.92
2023-05-20T06:37:51.125Z,2.35
2023-05-20T06:40:19.531Z,2.15
2023-05-20T06:42:46.858Z,2.10
2023-05-20T06:45:14.057Z,2.33
2023-05-20T06:47:43.469Z,2.30
2023-05-20T06:50:11.017Z,2.15
2023-05-20T06:52:37.936Z,2.10
2023-05-20T06:55:05.711Z,2.10
2023-05-20T06:57:32.572Z,2.05
2023-05-20T07:00:01.816Z,2.50
2023-05-20T07:02:28.716Z,2.17
2023-05-20T07:04:55.441Z,2.40
2023-05-20T07:07:22.193Z,2.08
2023-05-20T07:09:48.960Z,2.30
2023-05-20T07:12:15.972Z,2.35
2023-05-20T07:14:45.495Z,2.30
2023-05-20T07:17:12.953Z,2.40
2023-05-20T07:19:39.764Z,2.53
2023-05-20T07:22:06.502Z,2.03
2023-05-20T07:24:33.471Z,2.25
2023-05-20T07:27:00.427Z,2.40
2023-05-20T07:29:27.440Z,2.20
2023-05-20T07:31:54.466Z,1.85
2023-05-20T07:34:24.176Z,1.85
2023-05-20T07:39:20.538Z,2.30
2023-05-20T07:41:49.577Z,2.53
2023-05-20T07:44:19.103Z,2.55
2023-05-20T07:46:50.656Z,2.45
2023-05-20T07:49:17.469Z,2.85
2023-05-20T07:51:44.253Z,2.53
2023-05-20T07:54:11.809Z,2.42
2023-05-20T07:56:39.325Z,2.20
2023-05-20T07:59:08.171Z,2.55
2023-05-20T08:01:38.003Z,2.33
2023-05-20T08:04:09.675Z,2.65
2023-05-20T08:06:36.529Z,2.22
2023-05-20T08:09:05.784Z,2.00
2023-05-20T08:11:33.051Z,2.33
2023-05-20T08:13:59.878Z,2.20
2023-05-20T08:16:26.724Z,2.55
2023-05-20T08:18:58.549Z,2.22
2023-05-20T08:21:25.730Z,2.33
2023-05-20T08:23:52.849Z,2.03
2023-05-20T08:26:24.456Z,2.78
2023-05-20T08:28:51.172Z,2.33
2023-05-20T08:31:18.949Z,2.85
2023-05-20T08:33:45.873Z,2.67
2023-05-20T08:36:12.674Z,2.47
2023-05-20T08:38:39.457Z,2.67
2023-05-20T08:41:08.433Z,2.65
2023-05-20T08:43:37.975Z,2.40
2023-05-20T08:46:06.828Z,2.50
2023-05-20T08:48:35.121Z,2.42
2023-05-20T08:51:03.655Z,2.40
2023-05-20T08:53:30.830Z,2.42
2023-05-20T08:56:02.943Z,2.40
2023-05-20T08:58:33.026Z,2.55
2023-05-20T09:01:00.918Z,2.22
2023-05-20T09:03:28.841Z,2.50
2023-05-20T09:06:09.532Z,2.40
2023-05-20T09:08:39.040Z,2.70
2023-05-20T09:11:05.810Z,2.70
2023-05-20T09:13:32.774Z,2.20
2023-05-20T09:16:02.823Z,2.83
2023-05-20T09:18:30.293Z,2.92
2023-05-20T09:20:57.301Z,2.63
2023-05-20T09:23:25.645Z,2.55
2023-05-20T09:25:54.626Z,2.80
2023-05-20T09:28:25.373Z,2.38
2023-05-20T09:31:00.312Z,2.67
2023-05-20T09:33:34.836Z,2.85
2023-05-20T09:36:07.816Z,2.70
2023-05-20T09:38:40.144Z,3.05
2023-05-20T09:41:12.752Z,2.47
2023-05-20T09:43:42.916Z,3.10
2023-05-20T09:46:10.983Z,2.90
2023-05-20T09:48:41.233Z,2.72
2023-05-20T09:51:08.531Z,2.65
2023-05-20T09:53:36.268Z,2.80
2023-05-20T09:56:03.383Z,2.70
2023-05-20T09:58:32.798Z,2.85
2023-05-20T10:00:59.671Z,2.85
2023-05-20T10:03:28.043Z,2.80
2023-05-20T10:06:21.012Z,2.87
2023-05-20T10:09:18.527Z,2.80
2023-05-20T10:11:56.592Z,3.25
2023-05-20T10:14:34.500Z,3.22
2023-05-20T10:17:24.665Z,3.05
2023-05-20T10:20:01.007Z,2.78
2023-05-20T10:22:29.845Z,3.13
2023-05-20T10:25:01.281Z,3.30
2023-05-20T10:27:30.235Z,2.72
2023-05-20T10:29:57.924Z,2.90
2023-05-20T10:32:29.828Z,3.20
2023-05-20T10:35:02.028Z,3.08
2023-05-20T10:37:30.518Z,2.97
2023-05-20T10:40:07.860Z,3.13
2023-05-20T10:42:37.490Z,2.60
2023-05-20T10:47:33.121Z,2.90
2023-05-20T10:50:02.087Z,3.33
2023-05-20T10:52:33.906Z,3.28
2023-05-20T10:55:01.486Z,3.00
2023-05-20T10:57:32.251Z,3.25
2023-05-20T11:00:00.385Z,2.97
2023-05-20T11:02:30.303Z,3.30
2023-05-20T11:05:04.042Z,3.40
2023-05-20T11:07:32.102Z,3.13
2023-05-20T11:09:59.195Z,3.17
2023-05-20T11:12:29.398Z,3.17
2023-05-20T11:14:56.201Z,3.40
2023-05-20T11:17:25.355Z,3.40
2023-05-20T11:19:54.510Z,3.40
2023-05-20T11:22:21.843Z,3.45
2023-05-20T11:24:50.775Z,3.10
2023-05-20T11:27:17.532Z,3.47
2023-05-20T11:29:44.501Z,3.22
2023-05-20T11:32:12.520Z,3.30
2023-05-20T11:34:39.644Z,3.10
2023-05-20T11:37:10.334Z,3.35
2023-05-20T11:39:37.768Z,2.95
2023-05-20T11:42:06.042Z,3.50
2023-05-20T11:44:33.242Z,3.65
2023-05-20T11:47:01.756Z,3.25
2023-05-20T11:49:28.787Z,3.42
2023-05-20T11:51:56.989Z,3.30
2023-05-20T11:54:24.636Z,3.53
2023-05-20T11:56:52.935Z,3.55
2023-05-20T11:59:19.693Z,3.50
2023-05-20T12:01:49.086Z,3.55
2023-05-20T12:04:16.617Z,3.50
2023-05-20T12:06:44.239Z,3.05
2023-05-20T12:09:11.600Z,3.28
2023-05-20T12:11:41.120Z,3.47
2023-05-20T12:16:39.180Z,3.33
2023-05-20T12:19:06.209Z,3.58
2023-05-20T12:21:38.699Z,3.58
2023-05-20T12:24:08.633Z,3.22
2023-05-20T12:26:36.031Z,3.53
2023-05-20T12:29:05.437Z,3.25
2023-05-20T12:31:34.991Z,3.13
2023-05-20T12:34:03.999Z,5.18
2023-05-20T12:36:31.612Z,3.43
2023-05-20T12:38:58.813Z,3.25
2023-05-20T12:41:28.200Z,3.08
2023-05-20T12:43:58.131Z,3.03
2023-05-20T12:46:27.961Z,3.58
2023-05-20T12:48:55.077Z,3.00
2023-05-20T12:51:22.285Z,3.42
2023-05-20T12:53:51.686Z,3.17
2023-05-20T12:56:23.815Z,3.50
2023-05-20T12:58:52.734Z,3.67
2023-05-20T13:01:21.734Z,3.17
2023-05-20T13:03:52.862Z,3.05
2023-05-20T13:06:22.186Z,3.45
2023-05-20T13:08:53.625Z,3.55
2023-05-20T13:11:22.825Z,3.50
2023-05-20T13:13:49.563Z,3.30
2023-05-20T13:16:19.676Z,3.88
2023-05-20T13:18:48.751Z,3.53
2023-05-20T13:21:15.824Z,3.20
2023-05-20T13:23:42.819Z,3.58
2023-05-20T13:26:12.005Z,3.10
2023-05-20T13:28:43.242Z,3.40
2023-05-20T13:31:12.287Z,2.95
2023-05-20T13:33:39.140Z,3.38
2023-05-20T13:36:06.143Z,3.33
2023-05-20T13:38:36.536Z,2.80
2023-05-20T13:41:04.180Z,3.10
2023-05-20T13:43:34.397Z,3.38
2023-05-20T13:46:01.304Z,3.70
2023-05-20T13:48:30.495Z,3.08
2023-05-20T13:50:57.246Z,3.55
2023-05-20T13:53:24.005Z,3.10
2023-05-20T13:55:51.230Z,3.45
2023-05-20T13:58:17.959Z,3.67
2023-05-20T14:00:47.117Z,4.00
2023-05-20T14:03:13.914Z,3.88
2023-05-20T14:05:40.875Z,4.30
2023-05-20T14:08:10.155Z,3.75
2023-05-20T14:10:37.040Z,3.50
2023-05-20T14:13:04.152Z,3.80
2023-05-20T14:15:33.025Z,3.63
2023-05-20T14:17:59.870Z,3.55
2023-05-20T14:20:27.064Z,3.42
2023-05-20T14:22:56.265Z,3.88
2023-05-20T14:25:23.269Z,3.30
2023-05-20T14:27:50.556Z,3.38
2023-05-20T14:30:17.271Z,3.75
2023-05-20T14:32:44.149Z,3.85
2023-05-20T14:35:11.000Z,3.95
2023-05-20T14:37:37.806Z,3.72
2023-05-20T14:40:07.463Z,3.67
2023-05-20T14:42:34.376Z,3.47
2023-05-20T14:45:01.137Z,3.80
2023-05-20T14:47:30.592Z,3.70
2023-05-20T14:52:26.756Z,3.83
2023-05-20T14:54:53.630Z,4.13
2023-05-20T14:57:20.712Z,3.90
2023-05-20T14:59:47.696Z,4.00
2023-05-20T15:02:16.065Z,4.03
2023-05-20T15:04:45.084Z,3.30
2023-05-20T15:07:12.443Z,3.22
2023-05-20T15:09:44.262Z,3.20
2023-05-20T15:12:13.685Z,3.58
2023-05-20T15:14:40.452Z,3.58
2023-05-20T15:17:07.731Z,3.33
2023-05-20T15:19:36.589Z,3.65
2023-05-20T15:24:31.139Z,3.90
2023-05-20T15:26:57.856Z,3.35
2023-05-20T15:29:24.685Z,3.47
2023-05-20T15:31:51.603Z,3.65
2023-05-20T15:34:18.616Z,3.13
2023-05-20T15:36:48.013Z,4.18
2023-05-20T15:39:14.824Z,3.60
2023-05-20T15:41:42.525Z,3.70
2023-05-20T15:44:09.554Z,3.60
2023-05-20T15:46:38.623Z,3.92
2023-05-20T15:49:05.844Z,3.30
2023-05-20T15:51:32.586Z,3.28
2023-05-20T15:53:59.304Z,3.10
2023-05-20T15:56:26.088Z,3.60
2023-05-20T15:58:55.183Z,3.70
2023-05-20T16:01:26.288Z,4.00
2023-05-20T16:03:55.230Z,3.78
2023-05-20T16:06:25.987Z,3.47
2023-05-20T16:08:55.289Z,4.05
2023-05-20T16:11:24.826Z,3.40
2023-05-20T16:13:51.603Z,4.30
2023-05-20T16:16:20.808Z,3.72
2023-05-20T16:18:50.055Z,3.70
2023-05-20T16:21:16.938Z,4.00
2023-05-20T16:23:46.248Z,4.22
2023-05-20T16:26:13.206Z,4.35
2023-05-20T16:28:42.274Z,3.72
2023-05-20T16:31:09.076Z,3.55
2023-05-20T16:33:35.988Z,4.85
2023-05-20T16:36:02.836Z,3.80
2023-05-20T16:38:29.649Z,3.90
2023-05-20T16:40:58.555Z,4.07
2023-05-20T16:43:25.471Z,3.50
2023-05-20T16:45:54.465Z,3.40
2023-05-20T16:48:21.350Z,3.38
2023-05-20T16:50:48.086Z,3.97
2023-05-20T16:53:16.405Z,3.83
2023-05-20T16:55:43.486Z,4.35
2023-05-20T16:58:10.224Z,3.60
2023-05-20T17:00:37.030Z,3.75
2023-05-20T17:03:04.258Z,3.45
2023-05-20T17:05:31.338Z,3.35
2023-05-20T17:08:00.854Z,4.35
2023-05-20T17:12:56.008Z,3.60
2023-05-20T17:15:25.532Z,3.63
2023-05-20T17:20:19.551Z,3.25
2023-05-20T17:22:48.801Z,3.58
2023-05-20T17:25:15.685Z,3.33
2023-05-20T17:27:42.407Z,3.58
2023-05-20T17:30:09.373Z,3.33
2023-05-20T17:32:38.715Z,3.35
2023-05-20T17:35:06.926Z,3.42
2023-05-20T17:37:36.841Z,3.30
2023-05-20T17:40:07.064Z,3.55
2023-05-20T17:42:34.079Z,3.60
2023-05-20T17:45:03.220Z,3.58
2023-05-20T17:47:30.069Z,3.40
2023-05-20T17:49:59.913Z,3.30
2023-05-20T17:52:29.032Z,3.70
2023-05-20T17:54:55.754Z,3.33
2023-05-20T17:57:22.525Z,3.72
2023-05-20T17:59:49.472Z,3.60
2023-05-20T18:02:16.433Z,4.85
2023-05-20T18:04:43.288Z,3.65
2023-05-20T18:07:11.676Z,4.97
2023-05-20T18:09:43.169Z,3.50
2023-05-20T18:12:09.913Z,3.10
2023-05-20T18:14:36.635Z,4.10
2023-05-20T18:17:03.458Z,3.22
2023-05-20T18:19:30.643Z,3.50
2023-05-20T18:21:59.805Z,3.10
2023-05-20T18:24:26.613Z,3.30
2023-05-20T18:26:55.654Z,3.70
2023-05-20T18:29:26.760Z,3.90
2023-05-20T18:31:56.120Z,3.60
2023-05-20T18:34:22.986Z,3.13
2023-05-20T18:36:49.960Z,3.70
2023-05-20T18:39:20.384Z,3.97
2023-05-20T18:41:47.896Z,3.55
2023-05-20T18:44:19.038Z,3.92
2023-05-20T18:46:46.494Z,3.35
2023-05-20T18:49:13.548Z,3.88
2023-05-20T18:51:42.212Z,4.13
2023-05-20T18:54:11.431Z,3.80
2023-05-20T18:56:40.029Z,3.95
2023-05-20T18:59:07.044Z,4.22
2023-05-20T19:01:36.470Z,3.88
2023-05-20T19:06:31.369Z,4.00
2023-05-20T19:08:58.110Z,3.47
2023-05-20T19:11:24.873Z,3.63
2023-05-20T19:13:51.687Z,3.72
2023-05-20T19:16:20.857Z,3.97
2023-05-20T19:18:47.643Z,3.50
2023-05-20T19:21:19.501Z,3.97
2023-05-20T19:23:47.028Z,4.40
2023-05-20T19:26:13.955Z,4.07
2023-05-20T19:28:40.691Z,4.47
2023-05-20T19:31:07.634Z,3.65
2023-05-20T19:33:34.514Z,3.75
2023-05-20T19:36:03.867Z,3.63
2023-05-20T19:38:32.936Z,3.83
2023-05-20T19:40:59.681Z,4.53
2023-05-20T19:43:28.734Z,4.00
2023-05-20T19:45:55.830Z,3.70
2023-05-20T19:48:22.585Z,3.47
2023-05-20T19:50:50.844Z,4.38
2023-05-20T19:53:20.942Z,3.92
2023-05-20T19:55:53.225Z,3.75
2023-05-20T19:58:19.969Z,3.88
2023-05-20T20:00:46.666Z,4.13
2023-05-20T20:03:13.734Z,4.97
2023-05-20T20:05:45.405Z,7.93
2023-05-20T20:08:12.207Z,7.25
2023-05-20T20:10:39.023Z,7.47
2023-05-20T20:13:06.064Z,6.20
2023-05-20T20:15:37.359Z,5.55
2023-05-20T20:18:04.281Z,7.05
2023-05-20T20:20:40.006Z,6.55
2023-05-20T20:23:08.005Z,6.15
2023-05-20T20:25:44.498Z,9.77
2023-05-20T20:28:11.484Z,8.85
2023-05-20T20:30:38.363Z,8.57
2023-05-20T20:33:09.574Z,11.77
2023-05-20T20:35:37.759Z,7.63
2023-05-20T20:38:10.805Z,7.80
2023-05-20T20:40:44.911Z,8.88
2023-05-20T20:43:20.568Z,9.18
2023-05-20T20:45:47.956Z,5.85
2023-05-20T20:48:18.753Z,5.60
2023-05-20T20:50:48.523Z,5.57
2023-05-20T20:58:15.222Z,7.90
2023-05-20T21:00:45.744Z,5.78
2023-05-20T21:03:15.988Z,5.03
2023-05-20T21:05:42.770Z,8.00
2023-05-20T21:08:10.121Z,8.52
2023-05-20T21:10:38.281Z,7.88
2023-05-20T21:13:05.146Z,6.35
2023-05-20T21:15:32.038Z,6.82
2023-05-20T21:17:58.887Z,9.25
2023-05-20T21:20:25.670Z,6.60
2023-05-20T21:22:54.902Z,6.50
2023-05-20T21:25:21.671Z,5.82
2023-05-20T21:27:48.812Z,5.15
2023-05-20T21:30:17.324Z,5.18
2023-05-20T21:32:44.060Z,6.68
2023-05-20T21:35:13.266Z,5.20
2023-05-20T21:37:42.600Z,7.13
2023-05-20T21:40:09.738Z,6.78
2023-05-20T21:42:36.952Z,9.95
2023-05-20T21:45:05.306Z,6.43
2023-05-20T21:47:33.638Z,6.00
2023-05-20T21:50:02.731Z,5.18
2023-05-20T21:52:34.930Z,5.10
2023-05-20T21:55:05.960Z,5.13
2023-05-20T21:57:34.113Z,7.15
2023-05-20T22:00:00.834Z,6.45
2023-05-20T22:02:27.598Z,5.63
2023-05-20T22:04:55.247Z,5.82
2023-05-20T22:07:24.297Z,6.13
2023-05-20T22:09:51.033Z,5.10
2023-05-20T22:12:20.338Z,5.93
2023-05-20T22:14:47.159Z,5.15
2023-05-20T22:17:14.598Z,6.35
2023-05-20T22:19:41.587Z,5.53
2023-05-20T22:22:08.308Z,5.50
2023-05-20T22:24:35.035Z,5.30
2023-05-20T22:27:04.512Z,5.22
2023-05-20T22:29:32.536Z,5.43
2023-05-20T22:31:59.623Z,5.60
2023-05-20T22:34:28.912Z,6.18
2023-05-20T22:36:55.731Z,5.88
2023-05-20T22:39:22.462Z,6.07
2023-05-20T22:41:51.590Z,5.40
2023-05-20T22:44:18.321Z,5.65
2023-05-20T22:46:47.466Z,5.72
2023-05-20T22:49:14.669Z,5.68
2023-05-20T22:51:43.710Z,5.82
2023-05-20T22:54:10.936Z,5.40
2023-05-20T22:56:39.970Z,5.20
2023-05-20T22:59:10.442Z,5.88
2023-05-20T23:01:38.026Z,5.70
2023-05-20T23:04:05.536Z,5.45
2023-05-20T23:06:32.786Z,5.75
2023-05-20T23:09:02.189Z,5.60
2023-05-20T23:11:29.332Z,6.15
2023-05-20T23:13:56.456Z,5.85
2023-05-20T23:16:26.327Z,5.30
2023-05-20T23:18:53.776Z,5.60
2023-05-20T23:21:23.467Z,6.00
2023-05-20T23:23:50.638Z,5.40
2023-05-20T23:26:17.776Z,5.78
2023-05-20T23:28:44.972Z,6.28
2023-05-20T23:31:16.364Z,5.90
2023-05-20T23:33:50.785Z,6.35
2023-05-20T23:36:17.632Z,5.93
2023-05-20T23:38:45.016Z,6.20
2023-05-20T23:41:11.804Z,5.78
2023-05-20T23:43:41.324Z,5.93
2023-05-20T23:46:08.398Z,5.50
2023-05-20T23:48:35.989Z,5.75
2023-05-20T23:51:03.312Z,6.05
2023-05-20T23:53:30.175Z,5.95
2023-05-20T23:55:56.884Z,6.05
2023-05-20T23:58:23.703Z,5.45
